Lost Springs, Kansas
Current Conditions -  °F | °C
As of 8:03 AM on Monday 20 Oct 2014 (Local Time) from KFRI Reporting Station
Haze Haze  
Wind Chill: 45°   Ceiling: Unl
Heat Index: 45°   Visibility: 1.2mi
Dew Point: 45°   Wind: 2mph
Humidity: 100%   Direction: 230°SW
Pressure: 30.05"   Gusts: NA
Location:  38.57°N, 96.97°W
Report Text: KFRI 201303Z AUTO 23002KT 1 1/4SM BR CLR 07/07 A3005 RMK AO2 VIS 1 1/4V10
Loading
Personal Weather Stations






























Interactive Weather Map
Tropical Storm Tracking
New forecast layout! Learn more

10-Day Weather Forecast

Advertisements
Track Severe Weather on mobile